sensor_id;sensor_type;location;lat;lon;timestamp;P1;durP1;ratioP1;P2;durP2;ratioP2
57071;SDS011;42956;51.366;11.298;2022-09-13T00:02:17;3.13;;;2.30;;
57071;SDS011;42956;51.366;11.298;2022-09-13T00:04:45;3.95;;;2.60;;
57071;SDS011;42956;51.366;11.298;2022-09-13T00:07:13;3.83;;;2.53;;
57071;SDS011;42956;51.366;11.298;2022-09-13T00:09:40;6.70;;;2.45;;
57071;SDS011;42956;51.366;11.298;2022-09-13T00:12:08;4.32;;;2.72;;
57071;SDS011;42956;51.366;11.298;2022-09-13T00:14:36;6.35;;;2.30;;
57071;SDS011;42956;51.366;11.298;2022-09-13T00:17:05;5.38;;;2.58;;
57071;SDS011;42956;51.366;11.298;2022-09-13T00:19:33;6.22;;;3.05;;
57071;SDS011;42956;51.366;11.298;2022-09-13T00:22:01;5.80;;;2.70;;
57071;SDS011;42956;51.366;11.298;2022-09-13T00:24:29;2.90;;;2.35;;
57071;SDS011;42956;51.366;11.298;2022-09-13T00:26:57;4.25;;;2.53;;
57071;SDS011;42956;51.366;11.298;2022-09-13T00:29:25;3.13;;;2.78;;
57071;SDS011;42956;51.366;11.298;2022-09-13T00:31:52;4.00;;;2.55;;
57071;SDS011;42956;51.366;11.298;2022-09-13T00:34:22;3.65;;;2.90;;
57071;SDS011;42956;51.366;11.298;2022-09-13T00:36:50;3.63;;;2.70;;
57071;SDS011;42956;51.366;11.298;2022-09-13T00:39:18;3.40;;;2.58;;
57071;SDS011;42956;51.366;11.298;2022-09-13T00:41:46;3.15;;;2.47;;
57071;SDS011;42956;51.366;11.298;2022-09-13T00:47:00;4.38;;;2.85;;
57071;SDS011;42956;51.366;11.298;2022-09-13T00:49:31;3.55;;;3.25;;
57071;SDS011;42956;51.366;11.298;2022-09-13T00:52:02;6.38;;;2.47;;
57071;SDS011;42956;51.366;11.298;2022-09-13T00:54:33;9.60;;;3.42;;
57071;SDS011;42956;51.366;11.298;2022-09-13T00:57:02;4.95;;;2.83;;
57071;SDS011;42956;51.366;11.298;2022-09-13T00:59:31;4.35;;;2.88;;
57071;SDS011;42956;51.366;11.298;2022-09-13T01:02:00;8.13;;;3.38;;
57071;SDS011;42956;51.366;11.298;2022-09-13T01:04:30;5.22;;;3.53;;
57071;SDS011;42956;51.366;11.298;2022-09-13T01:07:01;5.43;;;3.65;;
57071;SDS011;42956;51.366;11.298;2022-09-13T01:09:31;8.38;;;3.33;;
57071;SDS011;42956;51.366;11.298;2022-09-13T01:12:02;4.32;;;2.53;;
57071;SDS011;42956;51.366;11.298;2022-09-13T01:14:34;8.07;;;4.00;;
57071;SDS011;42956;51.366;11.298;2022-09-13T01:17:02;4.80;;;3.22;;
57071;SDS011;42956;51.366;11.298;2022-09-13T01:19:31;3.65;;;3.30;;
57071;SDS011;42956;51.366;11.298;2022-09-13T01:22:09;5.07;;;3.57;;
57071;SDS011;42956;51.366;11.298;2022-09-13T01:24:54;5.70;;;3.40;;
57071;SDS011;42956;51.366;11.298;2022-09-13T01:30:14;3.97;;;3.17;;
57071;SDS011;42956;51.366;11.298;2022-09-13T01:35:42;4.15;;;3.28;;
57071;SDS011;42956;51.366;11.298;2022-09-13T01:38:17;6.47;;;3.67;;
57071;SDS011;42956;51.366;11.298;2022-09-13T01:40:50;4.32;;;3.40;;
57071;SDS011;42956;51.366;11.298;2022-09-13T01:43:26;5.18;;;3.53;;
57071;SDS011;42956;51.366;11.298;2022-09-13T01:46:03;4.88;;;3.65;;
57071;SDS011;42956;51.366;11.298;2022-09-13T01:48:33;4.25;;;3.33;;
57071;SDS011;42956;51.366;11.298;2022-09-13T01:51:04;4.72;;;3.38;;
57071;SDS011;42956;51.366;11.298;2022-09-13T01:53:35;6.60;;;4.85;;
57071;SDS011;42956;51.366;11.298;2022-09-13T01:56:09;6.70;;;3.42;;
57071;SDS011;42956;51.366;11.298;2022-09-13T01:58:38;4.28;;;3.88;;
57071;SDS011;42956;51.366;11.298;2022-09-13T02:01:11;4.72;;;3.65;;
57071;SDS011;42956;51.366;11.298;2022-09-13T02:03:43;6.13;;;3.65;;
57071;SDS011;42956;51.366;11.298;2022-09-13T02:06:12;8.60;;;4.40;;
57071;SDS011;42956;51.366;11.298;2022-09-13T02:08:42;4.95;;;4.13;;
57071;SDS011;42956;51.366;11.298;2022-09-13T02:11:12;5.43;;;4.05;;
57071;SDS011;42956;51.366;11.298;2022-09-13T02:13:41;6.63;;;3.50;;
57071;SDS011;42956;51.366;11.298;2022-09-13T02:16:14;5.85;;;3.65;;
57071;SDS011;42956;51.366;11.298;2022-09-13T02:18:44;5.88;;;3.80;;
57071;SDS011;42956;51.366;11.298;2022-09-13T02:21:14;4.80;;;4.10;;
57071;SDS011;42956;51.366;11.298;2022-09-13T02:23:46;5.35;;;4.18;;
57071;SDS011;42956;51.366;11.298;2022-09-13T02:26:14;4.45;;;3.33;;
57071;SDS011;42956;51.366;11.298;2022-09-13T02:28:44;9.48;;;4.40;;
57071;SDS011;42956;51.366;11.298;2022-09-13T02:31:16;4.78;;;3.80;;
57071;SDS011;42956;51.366;11.298;2022-09-13T02:33:46;4.53;;;3.65;;
57071;SDS011;42956;51.366;11.298;2022-09-13T02:36:16;5.15;;;3.67;;
57071;SDS011;42956;51.366;11.298;2022-09-13T02:38:47;6.13;;;4.03;;
57071;SDS011;42956;51.366;11.298;2022-09-13T02:41:20;5.28;;;4.18;;
57071;SDS011;42956;51.366;11.298;2022-09-13T02:43:50;6.85;;;4.00;;
57071;SDS011;42956;51.366;11.298;2022-09-13T02:48:57;8.88;;;5.32;;
57071;SDS011;42956;51.366;11.298;2022-09-13T02:51:29;11.73;;;6.73;;
57071;SDS011;42956;51.366;11.298;2022-09-13T02:54:04;9.73;;;7.40;;
57071;SDS011;42956;51.366;11.298;2022-09-13T02:59:08;20.67;;;11.50;;
57071;SDS011;42956;51.366;11.298;2022-09-13T03:01:38;25.95;;;15.85;;
57071;SDS011;42956;51.366;11.298;2022-09-13T03:04:08;30.25;;;18.45;;
57071;SDS011;42956;51.366;11.298;2022-09-13T03:06:36;34.03;;;19.45;;
57071;SDS011;42956;51.366;11.298;2022-09-13T03:09:07;34.28;;;20.27;;
57071;SDS011;42956;51.366;11.298;2022-09-13T03:11:39;27.85;;;19.17;;
57071;SDS011;42956;51.366;11.298;2022-09-13T03:14:19;38.42;;;22.88;;
57071;SDS011;42956;51.366;11.298;2022-09-13T03:17:04;30.50;;;19.45;;
57071;SDS011;42956;51.366;11.298;2022-09-13T03:19:39;31.80;;;20.85;;
57071;SDS011;42956;51.366;11.298;2022-09-13T03:22:17;25.67;;;18.02;;
57071;SDS011;42956;51.366;11.298;2022-09-13T03:24:49;27.63;;;18.65;;
57071;SDS011;42956;51.366;11.298;2022-09-13T03:27:22;27.55;;;18.92;;
57071;SDS011;42956;51.366;11.298;2022-09-13T03:29:53;32.58;;;19.73;;
57071;SDS011;42956;51.366;11.298;2022-09-13T03:32:23;24.30;;;18.02;;
57071;SDS011;42956;51.366;11.298;2022-09-13T03:34:57;30.25;;;20.60;;
57071;SDS011;42956;51.366;11.298;2022-09-13T03:37:30;31.63;;;21.52;;
57071;SDS011;42956;51.366;11.298;2022-09-13T03:40:00;37.58;;;22.27;;
57071;SDS011;42956;51.366;11.298;2022-09-13T03:42:31;35.13;;;21.70;;
57071;SDS011;42956;51.366;11.298;2022-09-13T03:45:02;30.00;;;20.98;;
57071;SDS011;42956;51.366;11.298;2022-09-13T03:47:31;44.70;;;22.98;;
57071;SDS011;42956;51.366;11.298;2022-09-13T03:50:01;37.50;;;21.80;;
57071;SDS011;42956;51.366;11.298;2022-09-13T03:52:30;33.42;;;21.05;;
57071;SDS011;42956;51.366;11.298;2022-09-13T03:54:58;31.55;;;21.80;;
57071;SDS011;42956;51.366;11.298;2022-09-13T03:57:26;27.50;;;15.90;;
57071;SDS011;42956;51.366;11.298;2022-09-13T03:59:55;35.53;;;18.70;;
57071;SDS011;42956;51.366;11.298;2022-09-13T04:02:24;30.05;;;20.05;;
57071;SDS011;42956;51.366;11.298;2022-09-13T04:04:53;27.02;;;18.77;;
57071;SDS011;42956;51.366;11.298;2022-09-13T04:07:24;30.45;;;21.13;;
57071;SDS011;42956;51.366;11.298;2022-09-13T04:09:51;31.38;;;20.33;;
57071;SDS011;42956;51.366;11.298;2022-09-13T04:12:19;30.48;;;20.02;;
57071;SDS011;42956;51.366;11.298;2022-09-13T04:14:47;34.55;;;20.02;;
57071;SDS011;42956;51.366;11.298;2022-09-13T04:17:15;30.83;;;18.70;;
57071;SDS011;42956;51.366;11.298;2022-09-13T04:19:43;31.83;;;20.45;;
57071;SDS011;42956;51.366;11.298;2022-09-13T04:22:12;29.80;;;19.88;;
57071;SDS011;42956;51.366;11.298;2022-09-13T04:24:42;28.15;;;16.58;;
57071;SDS011;42956;51.366;11.298;2022-09-13T04:27:09;28.58;;;19.25;;
57071;SDS011;42956;51.366;11.298;2022-09-13T04:29:38;30.80;;;18.77;;
57071;SDS011;42956;51.366;11.298;2022-09-13T04:32:05;25.60;;;16.20;;
57071;SDS011;42956;51.366;11.298;2022-09-13T04:34:35;30.88;;;17.67;;
57071;SDS011;42956;51.366;11.298;2022-09-13T04:37:02;28.63;;;17.63;;
57071;SDS011;42956;51.366;11.298;2022-09-13T04:39:30;24.67;;;15.77;;
57071;SDS011;42956;51.366;11.298;2022-09-13T04:41:59;23.02;;;15.20;;
57071;SDS011;42956;51.366;11.298;2022-09-13T04:44:27;21.80;;;14.35;;
57071;SDS011;42956;51.366;11.298;2022-09-13T04:46:55;21.67;;;13.85;;
57071;SDS011;42956;51.366;11.298;2022-09-13T04:49:23;24.40;;;14.50;;
57071;SDS011;42956;51.366;11.298;2022-09-13T04:51:51;22.98;;;13.00;;
57071;SDS011;42956;51.366;11.298;2022-09-13T04:54:19;19.77;;;12.20;;
57071;SDS011;42956;51.366;11.298;2022-09-13T04:56:47;18.73;;;12.70;;
57071;SDS011;42956;51.366;11.298;2022-09-13T04:59:16;18.88;;;12.77;;
57071;SDS011;42956;51.366;11.298;2022-09-13T05:01:45;20.77;;;12.90;;
57071;SDS011;42956;51.366;11.298;2022-09-13T05:04:13;18.75;;;12.23;;
57071;SDS011;42956;51.366;11.298;2022-09-13T05:06:40;16.30;;;11.38;;
57071;SDS011;42956;51.366;11.298;2022-09-13T05:09:09;18.17;;;13.10;;
57071;SDS011;42956;51.366;11.298;2022-09-13T05:11:39;18.67;;;12.85;;
57071;SDS011;42956;51.366;11.298;2022-09-13T05:14:08;15.38;;;10.88;;
57071;SDS011;42956;51.366;11.298;2022-09-13T05:16:37;26.73;;;12.65;;
57071;SDS011;42956;51.366;11.298;2022-09-13T05:19:05;20.48;;;11.90;;
57071;SDS011;42956;51.366;11.298;2022-09-13T05:21:49;12.38;;;9.82;;
57071;SDS011;42956;51.366;11.298;2022-09-13T05:24:17;15.63;;;9.65;;
57071;SDS011;42956;51.366;11.298;2022-09-13T05:26:45;15.85;;;10.70;;
57071;SDS011;42956;51.366;11.298;2022-09-13T05:29:13;14.40;;;9.50;;
57071;SDS011;42956;51.366;11.298;2022-09-13T05:31:42;15.30;;;10.15;;
57071;SDS011;42956;51.366;11.298;2022-09-13T05:34:11;13.20;;;9.80;;
57071;SDS011;42956;51.366;11.298;2022-09-13T05:36:39;16.42;;;9.48;;
57071;SDS011;42956;51.366;11.298;2022-09-13T05:39:10;13.95;;;9.27;;
57071;SDS011;42956;51.366;11.298;2022-09-13T05:41:59;10.25;;;7.70;;
57071;SDS011;42956;51.366;11.298;2022-09-13T05:44:27;11.23;;;8.23;;
57071;SDS011;42956;51.366;11.298;2022-09-13T05:46:56;12.10;;;8.32;;
57071;SDS011;42956;51.366;11.298;2022-09-13T05:49:24;16.83;;;9.55;;
57071;SDS011;42956;51.366;11.298;2022-09-13T05:51:52;14.63;;;8.60;;
57071;SDS011;42956;51.366;11.298;2022-09-13T05:54:23;13.00;;;8.43;;
57071;SDS011;42956;51.366;11.298;2022-09-13T05:56:51;10.63;;;7.78;;
57071;SDS011;42956;51.366;11.298;2022-09-13T05:59:22;12.50;;;9.13;;
57071;SDS011;42956;51.366;11.298;2022-09-13T06:01:50;11.48;;;8.43;;
57071;SDS011;42956;51.366;11.298;2022-09-13T06:04:22;12.77;;;8.77;;
57071;SDS011;42956;51.366;11.298;2022-09-13T06:06:50;13.27;;;9.18;;
57071;SDS011;42956;51.366;11.298;2022-09-13T06:09:18;11.23;;;8.43;;
57071;SDS011;42956;51.366;11.298;2022-09-13T06:11:46;15.90;;;9.75;;
57071;SDS011;42956;51.366;11.298;2022-09-13T06:14:14;12.85;;;9.23;;
57071;SDS011;42956;51.366;11.298;2022-09-13T06:16:41;11.43;;;7.97;;
57071;SDS011;42956;51.366;11.298;2022-09-13T06:19:09;13.15;;;8.80;;
57071;SDS011;42956;51.366;11.298;2022-09-13T06:21:38;14.90;;;8.57;;
57071;SDS011;42956;51.366;11.298;2022-09-13T06:24:08;11.93;;;8.23;;
57071;SDS011;42956;51.366;11.298;2022-09-13T06:26:35;12.32;;;8.48;;
57071;SDS011;42956;51.366;11.298;2022-09-13T06:29:03;10.40;;;8.32;;
57071;SDS011;42956;51.366;11.298;2022-09-13T06:31:31;14.73;;;9.30;;
57071;SDS011;42956;51.366;11.298;2022-09-13T06:33:59;13.13;;;8.80;;
57071;SDS011;42956;51.366;11.298;2022-09-13T06:36:28;16.33;;;10.10;;
57071;SDS011;42956;51.366;11.298;2022-09-13T06:38:58;20.90;;;12.95;;
57071;SDS011;42956;51.366;11.298;2022-09-13T06:41:27;21.05;;;12.25;;
57071;SDS011;42956;51.366;11.298;2022-09-13T06:43:55;21.42;;;12.10;;
57071;SDS011;42956;51.366;11.298;2022-09-13T06:46:24;21.95;;;13.52;;
57071;SDS011;42956;51.366;11.298;2022-09-13T06:48:52;28.63;;;13.95;;
57071;SDS011;42956;51.366;11.298;2022-09-13T06:51:21;20.67;;;12.27;;
57071;SDS011;42956;51.366;11.298;2022-09-13T06:53:49;20.40;;;14.20;;
57071;SDS011;42956;51.366;11.298;2022-09-13T06:56:19;24.80;;;13.52;;
57071;SDS011;42956;51.366;11.298;2022-09-13T06:58:47;31.50;;;14.45;;
57071;SDS011;42956;51.366;11.298;2022-09-13T07:01:17;26.02;;;13.20;;
57071;SDS011;42956;51.366;11.298;2022-09-13T07:03:46;30.05;;;13.27;;
57071;SDS011;42956;51.366;11.298;2022-09-13T07:06:14;21.05;;;12.93;;
57071;SDS011;42956;51.366;11.298;2022-09-13T07:08:48;21.50;;;12.85;;
57071;SDS011;42956;51.366;11.298;2022-09-13T07:11:17;19.33;;;13.88;;
57071;SDS011;42956;51.366;11.298;2022-09-13T07:13:47;20.55;;;11.73;;
57071;SDS011;42956;51.366;11.298;2022-09-13T07:16:16;19.48;;;13.13;;
57071;SDS011;42956;51.366;11.298;2022-09-13T07:18:44;15.65;;;10.40;;
57071;SDS011;42956;51.366;11.298;2022-09-13T07:21:12;23.45;;;10.48;;
57071;SDS011;42956;51.366;11.298;2022-09-13T07:23:40;15.30;;;10.00;;
57071;SDS011;42956;51.366;11.298;2022-09-13T07:26:08;14.10;;;10.00;;
57071;SDS011;42956;51.366;11.298;2022-09-13T07:28:36;15.05;;;10.15;;
57071;SDS011;42956;51.366;11.298;2022-09-13T07:31:07;15.90;;;9.63;;
57071;SDS011;42956;51.366;11.298;2022-09-13T07:33:36;16.27;;;10.40;;
57071;SDS011;42956;51.366;11.298;2022-09-13T07:36:04;19.55;;;11.35;;
57071;SDS011;42956;51.366;11.298;2022-09-13T07:38:33;17.42;;;10.98;;
57071;SDS011;42956;51.366;11.298;2022-09-13T07:41:01;22.85;;;11.57;;
57071;SDS011;42956;51.366;11.298;2022-09-13T07:43:32;21.88;;;10.88;;
57071;SDS011;42956;51.366;11.298;2022-09-13T07:46:00;18.00;;;10.50;;
57071;SDS011;42956;51.366;11.298;2022-09-13T07:48:32;14.02;;;10.60;;
57071;SDS011;42956;51.366;11.298;2022-09-13T07:51:00;22.95;;;9.65;;
57071;SDS011;42956;51.366;11.298;2022-09-13T07:56:50;17.58;;;10.32;;
57071;SDS011;42956;51.366;11.298;2022-09-13T07:59:20;13.55;;;9.65;;
57071;SDS011;42956;51.366;11.298;2022-09-13T08:01:55;19.73;;;10.25;;
57071;SDS011;42956;51.366;11.298;2022-09-13T08:04:24;16.15;;;10.05;;
57071;SDS011;42956;51.366;11.298;2022-09-13T08:06:53;13.30;;;10.32;;
57071;SDS011;42956;51.366;11.298;2022-09-13T08:09:21;15.93;;;10.35;;
57071;SDS011;42956;51.366;11.298;2022-09-13T08:11:50;16.52;;;10.05;;
57071;SDS011;42956;51.366;11.298;2022-09-13T08:14:19;16.02;;;9.75;;
57071;SDS011;42956;51.366;11.298;2022-09-13T08:16:47;17.10;;;10.20;;
57071;SDS011;42956;51.366;11.298;2022-09-13T08:19:16;16.30;;;9.75;;
57071;SDS011;42956;51.366;11.298;2022-09-13T08:21:45;19.52;;;10.32;;
57071;SDS011;42956;51.366;11.298;2022-09-13T08:24:14;17.42;;;9.55;;
57071;SDS011;42956;51.366;11.298;2022-09-13T08:26:42;12.63;;;8.60;;
57071;SDS011;42956;51.366;11.298;2022-09-13T08:29:11;16.15;;;9.18;;
57071;SDS011;42956;51.366;11.298;2022-09-13T08:31:39;14.52;;;9.88;;
57071;SDS011;42956;51.366;11.298;2022-09-13T08:34:09;17.52;;;9.25;;
57071;SDS011;42956;51.366;11.298;2022-09-13T08:36:38;12.93;;;8.43;;
57071;SDS011;42956;51.366;11.298;2022-09-13T08:39:09;16.10;;;8.68;;
57071;SDS011;42956;51.366;11.298;2022-09-13T08:41:55;18.15;;;9.38;;
57071;SDS011;42956;51.366;11.298;2022-09-13T08:44:27;9.70;;;7.35;;
57071;SDS011;42956;51.366;11.298;2022-09-13T08:46:58;15.70;;;9.18;;
57071;SDS011;42956;51.366;11.298;2022-09-13T08:49:29;18.42;;;8.73;;
57071;SDS011;42956;51.366;11.298;2022-09-13T08:52:00;13.20;;;8.48;;
57071;SDS011;42956;51.366;11.298;2022-09-13T08:54:32;14.13;;;8.60;;
57071;SDS011;42956;51.366;11.298;2022-09-13T08:57:02;13.20;;;8.73;;
57071;SDS011;42956;51.366;11.298;2022-09-13T08:59:47;9.27;;;7.35;;
57071;SDS011;42956;51.366;11.298;2022-09-13T09:02:27;9.27;;;5.78;;
57071;SDS011;42956;51.366;11.298;2022-09-13T09:05:00;9.40;;;5.85;;
57071;SDS011;42956;51.366;11.298;2022-09-13T09:07:30;8.88;;;5.22;;
57071;SDS011;42956;51.366;11.298;2022-09-13T09:10:01;7.85;;;6.13;;
57071;SDS011;42956;51.366;11.298;2022-09-13T09:12:31;11.90;;;6.32;;
57071;SDS011;42956;51.366;11.298;2022-09-13T09:15:02;12.43;;;5.93;;
57071;SDS011;42956;51.366;11.298;2022-09-13T09:17:38;6.28;;;5.18;;
57071;SDS011;42956;51.366;11.298;2022-09-13T09:22:35;6.72;;;5.63;;
57071;SDS011;42956;51.366;11.298;2022-09-13T09:25:05;6.53;;;5.22;;
57071;SDS011;42956;51.366;11.298;2022-09-13T09:27:34;8.13;;;4.75;;
57071;SDS011;42956;51.366;11.298;2022-09-13T09:30:02;10.43;;;4.93;;
57071;SDS011;42956;51.366;11.298;2022-09-13T09:32:35;8.30;;;5.18;;
57071;SDS011;42956;51.366;11.298;2022-09-13T09:35:09;7.93;;;5.03;;
57071;SDS011;42956;51.366;11.298;2022-09-13T09:37:45;6.40;;;5.28;;
57071;SDS011;42956;51.366;11.298;2022-09-13T09:40:18;6.63;;;4.95;;
57071;SDS011;42956;51.366;11.298;2022-09-13T09:42:47;6.68;;;5.07;;
57071;SDS011;42956;51.366;11.298;2022-09-13T09:45:23;11.88;;;4.68;;
57071;SDS011;42956;51.366;11.298;2022-09-13T09:47:52;7.97;;;5.38;;
57071;SDS011;42956;51.366;11.298;2022-09-13T09:50:21;9.23;;;4.82;;
57071;SDS011;42956;51.366;11.298;2022-09-13T09:52:51;10.50;;;4.47;;
57071;SDS011;42956;51.366;11.298;2022-09-13T09:55:26;5.90;;;4.10;;
57071;SDS011;42956;51.366;11.298;2022-09-13T09:57:55;5.75;;;4.57;;
57071;SDS011;42956;51.366;11.298;2022-09-13T10:00:24;7.45;;;4.95;;
57071;SDS011;42956;51.366;11.298;2022-09-13T10:02:53;7.45;;;5.05;;
57071;SDS011;42956;51.366;11.298;2022-09-13T10:05:21;5.90;;;4.70;;
57071;SDS011;42956;51.366;11.298;2022-09-13T10:07:51;9.15;;;5.15;;
57071;SDS011;42956;51.366;11.298;2022-09-13T10:10:20;7.90;;;4.93;;
57071;SDS011;42956;51.366;11.298;2022-09-13T10:12:51;7.43;;;4.75;;
57071;SDS011;42956;51.366;11.298;2022-09-13T10:15:20;5.20;;;3.88;;
57071;SDS011;42956;51.366;11.298;2022-09-13T10:18:05;7.43;;;4.32;;
57071;SDS011;42956;51.366;11.298;2022-09-13T10:21:00;5.72;;;4.15;;
57071;SDS011;42956;51.366;11.298;2022-09-13T10:23:28;6.45;;;4.40;;
57071;SDS011;42956;51.366;11.298;2022-09-13T10:25:57;6.85;;;4.55;;
57071;SDS011;42956;51.366;11.298;2022-09-13T10:28:30;5.07;;;3.92;;
57071;SDS011;42956;51.366;11.298;2022-09-13T10:31:00;5.03;;;4.00;;
57071;SDS011;42956;51.366;11.298;2022-09-13T10:33:30;4.90;;;3.95;;
57071;SDS011;42956;51.366;11.298;2022-09-13T10:35:59;6.65;;;4.07;;
57071;SDS011;42956;51.366;11.298;2022-09-13T10:38:29;5.88;;;3.80;;
57071;SDS011;42956;51.366;11.298;2022-09-13T10:40:58;4.78;;;3.08;;
57071;SDS011;42956;51.366;11.298;2022-09-13T10:43:27;8.35;;;3.38;;
57071;SDS011;42956;51.366;11.298;2022-09-13T10:45:57;5.63;;;3.75;;
57071;SDS011;42956;51.366;11.298;2022-09-13T10:48:27;4.50;;;3.90;;
57071;SDS011;42956;51.366;11.298;2022-09-13T10:50:59;5.57;;;3.85;;
57071;SDS011;42956;51.366;11.298;2022-09-13T10:53:32;4.50;;;3.42;;
57071;SDS011;42956;51.366;11.298;2022-09-13T10:56:01;7.25;;;2.92;;
57071;SDS011;42956;51.366;11.298;2022-09-13T10:58:29;5.60;;;2.88;;
57071;SDS011;42956;51.366;11.298;2022-09-13T11:01:12;6.25;;;2.97;;
57071;SDS011;42956;51.366;11.298;2022-09-13T11:03:46;3.35;;;2.75;;
57071;SDS011;42956;51.366;11.298;2022-09-13T11:06:19;6.38;;;2.88;;
57071;SDS011;42956;51.366;11.298;2022-09-13T11:08:54;3.20;;;2.78;;
57071;SDS011;42956;51.366;11.298;2022-09-13T11:11:25;4.47;;;3.05;;
57071;SDS011;42956;51.366;11.298;2022-09-13T11:13:59;3.55;;;2.70;;
57071;SDS011;42956;51.366;11.298;2022-09-13T11:16:39;4.07;;;3.08;;
57071;SDS011;42956;51.366;11.298;2022-09-13T11:19:15;4.25;;;3.58;;
57071;SDS011;42956;51.366;11.298;2022-09-13T11:21:50;6.57;;;3.80;;
57071;SDS011;42956;51.366;11.298;2022-09-13T11:24:31;5.28;;;3.70;;
57071;SDS011;42956;51.366;11.298;2022-09-13T11:27:06;6.18;;;4.60;;
57071;SDS011;42956;51.366;11.298;2022-09-13T11:29:43;4.35;;;3.58;;
57071;SDS011;42956;51.366;11.298;2022-09-13T11:32:17;5.75;;;4.05;;
57071;SDS011;42956;51.366;11.298;2022-09-13T11:34:53;5.88;;;3.83;;
57071;SDS011;42956;51.366;11.298;2022-09-13T11:37:30;6.43;;;4.05;;
57071;SDS011;42956;51.366;11.298;2022-09-13T11:40:02;5.00;;;3.80;;
57071;SDS011;42956;51.366;11.298;2022-09-13T11:42:38;9.90;;;5.38;;
57071;SDS011;42956;51.366;11.298;2022-09-13T11:45:17;8.15;;;4.80;;
57071;SDS011;42956;51.366;11.298;2022-09-13T11:47:56;5.72;;;4.40;;
57071;SDS011;42956;51.366;11.298;2022-09-13T11:50:28;5.45;;;4.13;;
57071;SDS011;42956;51.366;11.298;2022-09-13T11:55:42;4.00;;;3.55;;
57071;SDS011;42956;51.366;11.298;2022-09-13T11:58:13;4.95;;;4.45;;
57071;SDS011;42956;51.366;11.298;2022-09-13T12:00:44;9.15;;;4.90;;
57071;SDS011;42956;51.366;11.298;2022-09-13T12:03:16;4.15;;;3.75;;
57071;SDS011;42956;51.366;11.298;2022-09-13T12:05:47;6.93;;;3.60;;
57071;SDS011;42956;51.366;11.298;2022-09-13T12:08:17;6.57;;;4.07;;
57071;SDS011;42956;51.366;11.298;2022-09-13T12:10:47;4.18;;;3.45;;
57071;SDS011;42956;51.366;11.298;2022-09-13T12:13:18;7.68;;;3.40;;
57071;SDS011;42956;51.366;11.298;2022-09-13T12:15:48;4.50;;;3.50;;
57071;SDS011;42956;51.366;11.298;2022-09-13T12:18:20;5.72;;;3.92;;
57071;SDS011;42956;51.366;11.298;2022-09-13T12:20:49;3.60;;;3.30;;
57071;SDS011;42956;51.366;11.298;2022-09-13T12:23:19;10.82;;;4.18;;
57071;SDS011;42956;51.366;11.298;2022-09-13T12:25:52;8.13;;;3.13;;
57071;SDS011;42956;51.366;11.298;2022-09-13T12:28:22;6.13;;;2.67;;
57071;SDS011;42956;51.366;11.298;2022-09-13T12:30:54;4.07;;;2.50;;
57071;SDS011;42956;51.366;11.298;2022-09-13T12:33:23;11.60;;;2.35;;
57071;SDS011;42956;51.366;11.298;2022-09-13T12:38:48;2.83;;;1.80;;
57071;SDS011;42956;51.366;11.298;2022-09-13T12:41:26;5.15;;;2.28;;
57071;SDS011;42956;51.366;11.298;2022-09-13T12:46:54;3.00;;;2.03;;
57071;SDS011;42956;51.366;11.298;2022-09-13T12:49:31;3.10;;;2.00;;
57071;SDS011;42956;51.366;11.298;2022-09-13T12:52:15;3.10;;;1.90;;
57071;SDS011;42956;51.366;11.298;2022-09-13T12:58:02;4.43;;;2.13;;
57071;SDS011;42956;51.366;11.298;2022-09-13T13:00:31;10.32;;;2.65;;
57071;SDS011;42956;51.366;11.298;2022-09-13T13:03:02;2.42;;;1.67;;
57071;SDS011;42956;51.366;11.298;2022-09-13T13:05:40;2.33;;;2.13;;
57071;SDS011;42956;51.366;11.298;2022-09-13T13:08:17;1.63;;;1.52;;
57071;SDS011;42956;51.366;11.298;2022-09-13T13:10:58;3.17;;;1.75;;
57071;SDS011;42956;51.366;11.298;2022-09-13T13:13:29;3.97;;;2.60;;
57071;SDS011;42956;51.366;11.298;2022-09-13T13:16:00;4.57;;;2.22;;
57071;SDS011;42956;51.366;11.298;2022-09-13T13:18:29;5.28;;;1.60;;
57071;SDS011;42956;51.366;11.298;2022-09-13T13:21:19;2.10;;;1.88;;
57071;SDS011;42956;51.366;11.298;2022-09-13T13:24:02;2.40;;;1.77;;
57071;SDS011;42956;51.366;11.298;2022-09-13T13:26:51;4.15;;;1.63;;
57071;SDS011;42956;51.366;11.298;2022-09-13T13:29:20;5.30;;;1.80;;
57071;SDS011;42956;51.366;11.298;2022-09-13T13:34:47;6.30;;;1.85;;
57071;SDS011;42956;51.366;11.298;2022-09-13T13:37:25;5.97;;;2.20;;
57071;SDS011;42956;51.366;11.298;2022-09-13T13:40:10;1.85;;;1.73;;
57071;SDS011;42956;51.366;11.298;2022-09-13T13:42:40;5.47;;;1.90;;
57071;SDS011;42956;51.366;11.298;2022-09-13T13:45:15;3.15;;;1.90;;
57071;SDS011;42956;51.366;11.298;2022-09-13T13:50:30;2.55;;;2.35;;
57071;SDS011;42956;51.366;11.298;2022-09-13T13:53:18;3.05;;;2.20;;
57071;SDS011;42956;51.366;11.298;2022-09-13T13:55:46;3.67;;;2.10;;
57071;SDS011;42956;51.366;11.298;2022-09-13T13:58:28;2.50;;;2.05;;
57071;SDS011;42956;51.366;11.298;2022-09-13T14:00:57;7.15;;;2.20;;
57071;SDS011;42956;51.366;11.298;2022-09-13T14:03:27;2.15;;;1.75;;
57071;SDS011;42956;51.366;11.298;2022-09-13T14:05:59;4.13;;;1.73;;
57071;SDS011;42956;51.366;11.298;2022-09-13T14:08:35;2.70;;;2.28;;
57071;SDS011;42956;51.366;11.298;2022-09-13T14:11:07;3.28;;;1.90;;
57071;SDS011;42956;51.366;11.298;2022-09-13T14:13:45;5.07;;;2.42;;
57071;SDS011;42956;51.366;11.298;2022-09-13T14:16:18;3.78;;;2.30;;
57071;SDS011;42956;51.366;11.298;2022-09-13T14:18:59;2.28;;;1.92;;
57071;SDS011;42956;51.366;11.298;2022-09-13T14:21:32;2.80;;;1.90;;
57071;SDS011;42956;51.366;11.298;2022-09-13T14:24:14;4.72;;;2.08;;
57071;SDS011;42956;51.366;11.298;2022-09-13T14:26:43;3.25;;;2.20;;
57071;SDS011;42956;51.366;11.298;2022-09-13T14:29:15;2.72;;;2.15;;
57071;SDS011;42956;51.366;11.298;2022-09-13T14:31:45;2.40;;;1.88;;
57071;SDS011;42956;51.366;11.298;2022-09-13T14:34:19;5.45;;;2.28;;
57071;SDS011;42956;51.366;11.298;2022-09-13T14:36:50;2.78;;;2.30;;
57071;SDS011;42956;51.366;11.298;2022-09-13T14:39:19;4.53;;;2.03;;
57071;SDS011;42956;51.366;11.298;2022-09-13T14:41:47;1.92;;;1.70;;
57071;SDS011;42956;51.366;11.298;2022-09-13T14:44:18;3.15;;;1.70;;
57071;SDS011;42956;51.366;11.298;2022-09-13T14:46:56;3.35;;;1.95;;
57071;SDS011;42956;51.366;11.298;2022-09-13T14:49:27;3.42;;;2.05;;
57071;SDS011;42956;51.366;11.298;2022-09-13T14:51:57;2.33;;;1.75;;
57071;SDS011;42956;51.366;11.298;2022-09-13T14:54:28;2.28;;;1.67;;
57071;SDS011;42956;51.366;11.298;2022-09-13T14:56:58;4.25;;;1.90;;
57071;SDS011;42956;51.366;11.298;2022-09-13T14:59:30;2.55;;;2.20;;
57071;SDS011;42956;51.366;11.298;2022-09-13T15:02:03;2.97;;;2.35;;
57071;SDS011;42956;51.366;11.298;2022-09-13T15:04:31;2.88;;;2.15;;
57071;SDS011;42956;51.366;11.298;2022-09-13T15:07:05;4.80;;;1.90;;
57071;SDS011;42956;51.366;11.298;2022-09-13T15:09:33;5.75;;;2.42;;
57071;SDS011;42956;51.366;11.298;2022-09-13T15:12:03;3.08;;;1.95;;
57071;SDS011;42956;51.366;11.298;2022-09-13T15:14:33;2.08;;;1.80;;
57071;SDS011;42956;51.366;11.298;2022-09-13T15:17:06;4.18;;;1.73;;
57071;SDS011;42956;51.366;11.298;2022-09-13T15:19:35;4.82;;;1.73;;
57071;SDS011;42956;51.366;11.298;2022-09-13T15:24:47;5.82;;;2.60;;
57071;SDS011;42956;51.366;11.298;2022-09-13T15:27:18;4.18;;;2.83;;
57071;SDS011;42956;51.366;11.298;2022-09-13T15:29:48;2.55;;;2.20;;